Aéroport international Pierre-Elliott-Trudeau de Montréal

CYUL

5. Juli 2022

Uhrzeit Code Wetter Temp. Sichtweite Wolkendecke Wind METAR/SPECI
2:00 pm
V
68 °F 15 mi 11.000 ft 080° 080° 6 kt METAR CYUL 051800Z 08006KT 030V100 15SM FEW055 OVC110 20/14 A2991 RMK SC2AC6 SLP130 DENSITY ALT 800FT
1:22 pm
V
68 °F 15 mi 8.000 ft 030° 030° 7 kt METAR CYUL 051722Z 03007KT 15SM SCT055 OVC080 20/15 A2993 RMK SC3AC5 SLP136 DENSITY ALT 700FT
1:00 pm
V
66 °F 15 mi 5.800 ft 010° 010° 4 kt METAR CYUL 051700Z 01004KT 15SM -RA BKN058 OVC070 19/15 A2994 RMK SC6AC2 -RA INTMT SLP141 DENSITY ALT 700FT
12:00 pm
V
66 °F 15 mi 6.300 ft 240° 240° 3 kt METAR CYUL 051600Z 24003KT 15SM OVC063 19/14 A2997 RMK SC8 INTMT -RA SLP150 DENSITY ALT 600FT
11:00 am
V
68 °F 15 mi 9.000 ft 230° 230° 5 kt METAR CYUL 051500Z 23005KT 15SM OVC090 20/14 A2999 RMK AC8 INTMT -RA SLP156 DENSITY ALT 700FT
10:00 am
V
66 °F 15 mi 9.500 ft 190° 190° 6 kt METAR CYUL 051400Z 19006KT 15SM -RA FEW065 OVC095 19/14 A2999 RMK SC1AC8 SC TR SLP158 DENSITY ALT 600FT
9:00 am
V
66 °F 15 mi 8.000 ft 220° 220° 6 kt METAR CYUL 051300Z 22006KT 15SM -SHRA FEW038 SCT060 BKN080 OVC100 19/14 A3000 RMK SC1SC3AC2AS2 CVCTV CLD EMBD SLP161 DENSITY ALT 600FT
8:00 am
V
68 °F 15 mi 8.000 ft 180° 180° 4 kt METAR CYUL 051200Z 18004KT 160V230 15SM -SHRA SCT053 BKN080 OVC110 20/14 A3001 RMK SC3AC3AS2 CVCTV CLD EMBD SLP163 DENSITY ALT 700FT
7:00 am
V
66 °F 15 mi 7.800 ft 230° 230° 3 kt METAR CYUL 051100Z 23003KT 15SM BKN078 BKN150 OVC220 19/12 A3001 RMK AC5AC2CS1 SLP165 DENSITY ALT 600FT
6:00 am
V
64 °F 15 mi 16.000 ft 230° 230° 4 kt METAR CYUL 051000Z 23004KT 15SM BKN160 BKN240 18/12 A3001 RMK AC5CI2 SLP165 DENSITY ALT 500FT
5:00 am
V
64 °F 15 mi 16.000 ft 240° 240° 4 kt METAR CYUL 050900Z 24004KT 15SM BKN160 18/12 A3002 RMK AC5 SLP166 DENSITY ALT 500FT
4:00 am
V
64 °F 15 mi - 240° 240° 7 kt METAR CYUL 050800Z 24007KT 15SM FEW180 FEW240 18/13 A3002 RMK AC1CI1 AC TR SLP167 DENSITY ALT 500FT
3:00 am
V
64 °F 15 mi - 240° 240° 7 kt METAR CYUL 050700Z 24007KT 15SM FEW250 18/13 A3002 RMK CI1 SLP169 DENSITY ALT 400FT
2:00 am
V
66 °F 15 mi - 230° 230° 6 kt METAR CYUL 050600Z 23006KT 15SM SCT250 19/14 A3003 RMK CI3 SLP172 DENSITY ALT 500FT
1:00 am
V
68 °F 15 mi 25.000 ft 230° 230° 5 kt METAR CYUL 050500Z 23005KT 15SM BKN250 20/12 A3005 RMK CI5 SLP176 DENSITY ALT 600FT
12:00 am
V
70 °F 15 mi 24.000 ft 250° 250° 7 kt METAR CYUL 050400Z 25007KT 15SM BKN240 21/12 A3004 RMK CI6 SLP174 DENSITY ALT 700FT

4. Juli 2022

Uhrzeit Code Wetter Temp. Sichtweite Wolkendecke Wind METAR/SPECI
11:00 pm
V
72 °F 15 mi 24.000 ft 250° 250° 10 kt METAR CYUL 050300Z 25010KT 15SM OVC240 22/12 A3004 RMK CS8 SLP175 DENSITY ALT 800FT
10:00 pm
V
70 °F 15 mi 25.000 ft 240° 240° 7 kt METAR CYUL 050200Z 24007KT 15SM OVC250 21/13 A3005 RMK CS8 SLP176 DENSITY ALT 700FT
9:00 pm
V
72 °F 15 mi 25.000 ft 230° 230° 5 kt METAR CYUL 050100Z 23005KT 15SM FEW180 OVC250 22/11 A3003 RMK AC1CS7 CI ASOCTD SLP170 DENSITY ALT 900FT
8:00 pm
V
75 °F 15 mi 25.000 ft 270° 270° 7 kt METAR CYUL 050000Z 27007KT 15SM FEW065 FEW100 BKN250 24/10 A3003 RMK CF1AC2CI5 CF TR SLP172 DENSITY ALT 1100FT
7:00 pm
V
77 °F 15 mi 25.000 ft 270° 270° 9 kt METAR CYUL 042300Z 27009KT 15SM FEW065 BKN250 25/10 A3003 RMK CU2CI5 SLP171 DENSITY ALT 1200FT
6:00 pm
V
77 °F 15 mi 25.000 ft 270° 270° 10 - 17 kt METAR CYUL 042200Z 27010G17KT 240V300 15SM FEW065 BKN250 25/09 A3003 RMK CU2CI5 SLP172 DENSITY ALT 1300FT
5:00 pm
V
77 °F 30 mi 25.000 ft 270° 270° 11 - 22 kt METAR CYUL 042100Z 27011G22KT 30SM SCT065 SCT095 BKN250 25/10 A3004 RMK CU3AC1CI1 SLP175 DENSITY ALT 1300FT
4:00 pm
V
79 °F 30 mi 11.000 ft 250° 250° 11 - 17 kt METAR CYUL 042000Z 25011G17KT 30SM SCT065 BKN110 26/09 A3005 RMK CU4AC2 CF ASOCTD SLP179 DENSITY ALT 1300FT
3:00 pm
V
77 °F 30 mi 6.500 ft 210° 210° 14 kt METAR CYUL 041900Z 21014KT 30SM BKN065 BKN250 25/12 A3007 RMK CU6CI1 CI TR SLP183 DENSITY ALT 1200FT
2:00 pm
V
75 °F 30 mi 6.500 ft 210° 210° 14 kt METAR CYUL 041800Z 21014KT 30SM BKN065 24/11 A3007 RMK CU6 SLP185 DENSITY ALT 1100FT
1:00 pm
V
75 °F 30 mi - 200° 200° 10 kt METAR CYUL 041700Z 20010KT 30SM SCT065 24/11 A3009 RMK CU3 SLP191 DENSITY ALT 1000FT
12:00 pm
V
73 °F 30 mi - 180° 180° 11 kt METAR CYUL 041600Z 18011KT 30SM FEW065 FEW180 23/10 A3011 RMK CU2AC1 AC TR SLP198 DENSITY ALT 900FT
11:00 am
V
72 °F 30 mi - 190° 190° 8 kt METAR CYUL 041500Z 19008KT 30SM FEW065 FEW120 FEW250 22/10 A3011 RMK CU1AC1CI1 AC TR CI TR SLP200 DENSITY ALT 800FT
10:00 am
V
70 °F 30 mi - Var Var 3 kt METAR CYUL 041400Z VRB03KT 30SM FEW065 FEW180 FEW240 21/07 A3011 RMK CU1AC1CI1 CU TR AC TR CI TR SLP200 DENSITY ALT 700FT
9:00 am
V
70 °F 30 mi - 340° 340° 6 kt METAR CYUL 041300Z 34006KT 30SM FEW110 FEW250 21/08 A3012 RMK AC1CI1 AC TR SLP202 DENSITY ALT 600FT
8:00 am
V
66 °F 30 mi - 340° 340° 5 kt METAR CYUL 041200Z 34005KT 270V350 30SM FEW110 FEW250 19/10 A3012 RMK AC1CI1 AC TR SLP201 DENSITY ALT 400FT
7:00 am
V
64 °F 30 mi - 270° 270° 4 kt METAR CYUL 041100Z 27004KT 250V320 30SM FEW110 FEW250 18/11 A3011 RMK AC1CI1 AC TR SLP200 DENSITY ALT 300FT
6:00 am
V
61 °F 15 mi - 320° 320° 5 kt METAR CYUL 041000Z 32005KT 15SM FEW040 FEW250 16/10 A3010 RMK SC1CI1 CI TR SLP196
5:00 am
V
59 °F 15 mi - 310° 310° 4 kt METAR CYUL 040900Z 31004KT 15SM FEW020 15/10 A3009 RMK SC1 SC TR SLP190
4:00 am
V
61 °F 15 mi - 300° 300° 6 kt METAR CYUL 040800Z 30006KT 15SM SKC 16/10 A3007 RMK SLP184
3:00 am
V
61 °F 15 mi - 300° 300° 7 kt METAR CYUL 040700Z 30007KT 15SM SKC 16/10 A3007 RMK SLP183 DENSITY ALT 200FT
2:00 am
V
63 °F 15 mi - 280° 280° 8 kt METAR CYUL 040600Z 28008KT 15SM SKC 17/10 A3006 RMK SLP180 DENSITY ALT 300FT
1:00 am
V
64 °F 15 mi - 300° 300° 5 kt METAR CYUL 040500Z 30005KT 15SM SKC 18/10 A3005 RMK SLP176 DENSITY ALT 400FT
12:00 am
V
64 °F 15 mi - 280° 280° 5 kt METAR CYUL 040400Z 28005KT 15SM FEW110 18/11 A3004 RMK AC1 AC TR SLP173 DENSITY ALT 400FT

3. Juli 2022

Uhrzeit Code Wetter Temp. Sichtweite Wolkendecke Wind METAR/SPECI
11:00 pm
V
66 °F 15 mi - 280° 280° 3 kt METAR CYUL 040300Z 28003KT 15SM FEW110 FEW250 19/11 A3002 RMK AC1CI1 AC TR CI TR SLP169 DENSITY ALT 500FT
10:00 pm
V
68 °F 15 mi - 270° 270° 6 kt METAR CYUL 040200Z 27006KT 15SM FEW110 FEW250 20/11 A3003 RMK AC1CI1 AC TR SLP170 DENSITY ALT 600FT
9:00 pm
V
68 °F 30 mi 25.000 ft 270° 270° 6 kt METAR CYUL 040100Z 27006KT 30SM FEW070 FEW110 BKN250 20/11 A3001 RMK CU1AC1CI5 CU TR SLP165 DENSITY ALT 600FT
8:00 pm
V
70 °F 30 mi - 270° 270° 11 - 18 kt METAR CYUL 040000Z 27011G18KT 30SM FEW070 FEW100 SCT250 21/11 A3002 RMK CU1AC1CI2 CU TR SLP167 DENSITY ALT 800FT
7:49 pm
V
70 °F 30 mi - 270° 270° 11 - 18 kt METAR CYUL 032349Z 27011G18KT 30SM FEW070 SCT100 SCT250 21/11 A3002 RMK CU1AC2CI1 SLP168 DENSITY ALT 800FT
7:28 pm
V
72 °F 30 mi 10.000 ft 270° 270° 17 - 29 kt METAR CYUL 032328Z 27017G29KT 30SM -SHRA SCT070 BKN100 BKN250 22/11 A3001 RMK CU4AC2CI1 CI TR SLP164 DENSITY ALT 1000FT
7:00 pm
V
73 °F 30 mi 10.000 ft 270° 270° 11 - 18 kt METAR CYUL 032300Z 27011G18KT 30SM VCSH SCT070 BKN100 BKN250 23/09 A3000 RMK CU4AC1CI1 SHWR W-NW SLP159 DENSITY ALT 1100FT
6:00 pm
V
75 °F 30 mi - 270° 270° 11 - 18 kt METAR CYUL 032200Z 27011G18KT 30SM FEW070 SCT100 SCT250 24/08 A2998 RMK CU1AC2CI1 CI TR SLP154 DENSITY ALT 1200FT
5:00 pm
V
77 °F 30 mi - 260° 260° 12 - 21 kt METAR CYUL 032100Z 26012G21KT 30SM SCT070 SCT100 SCT250 25/09 A2998 RMK CU3AC1CI1 CI TR SLP153 DENSITY ALT 1300FT
4:00 pm
V
77 °F 30 mi - 270° 270° 14 kt METAR CYUL 032000Z 27014KT 250V320 30SM SCT065 SCT250 25/10 A2997 RMK CU3CI1 CI TR SLP150 DENSITY ALT 1300FT
3:00 pm
V
75 °F 30 mi - 270° 270° 13 - 21 kt METAR CYUL 031900Z CCA 27013G21KT 30SM FEW065 FEW250 24/09 A2998 RMK CU2CI1 CI TR SLP155 DENSITY ALT 1200FT
2:00 pm
V
75 °F 30 mi - 270° 270° 14 kt METAR CYUL 031800Z 27014KT 30SM FEW060 24/09 A2998 RMK CU1 SLP154 DENSITY ALT 1100FT
1:00 pm
V
75 °F 30 mi - 250° 250° 14 - 20 kt METAR CYUL 031700Z 25014G20KT 30SM FEW055 24/09 A2998 RMK CU1 SLP155 DENSITY ALT 1100FT
12:00 pm
V
73 °F 30 mi - 250° 250° 17 - 23 kt METAR CYUL 031600Z 25017G23KT 30SM FEW050 23/10 A2998 RMK CU1 SLP155 DENSITY ALT 1100FT
11:00 am
V
72 °F 30 mi - 260° 260° 9 kt METAR CYUL 031500Z 26009KT 30SM FEW045 FEW080 FEW250 22/12 A2998 RMK CU1AC1CI1 CU TR AC TR CI TR SLP155 DENSITY ALT 900FT
Ältere Daten

Laden Sie unsere App herunter

Einfacher Zugriff auf das gesamte Flugwetter auf Ihrem Mobiltelefon und Tablet.
Mit vielen Funktionen, die auf der Website nicht verfügbar sind, wie Offline-Unterstützung und eine persönliche Flughafenliste.

Wir und Dritte verfolgen dein Internetverhalten auf unserer Website mit Cookies. Wenn du fortfährst, gehen wir davon aus, dass du mit unserer Cookie-Richtlinie einverstanden bist. Mehr erfahren